createdAt,value
2018-07-24T00:01:10.938Z,5.13
2018-07-24T00:03:39.494Z,5.27
2018-07-24T00:06:07.800Z,4.90
2018-07-24T00:08:36.127Z,5.07
2018-07-24T00:11:05.040Z,4.93
2018-07-24T00:13:33.294Z,4.77
2018-07-24T00:16:02.784Z,4.93
2018-07-24T00:18:31.179Z,4.60
2018-07-24T00:20:59.538Z,4.93
2018-07-24T00:23:27.915Z,4.80
2018-07-24T00:25:56.302Z,4.60
2018-07-24T00:28:25.212Z,4.13
2018-07-24T00:30:53.564Z,4.63
2018-07-24T00:33:21.951Z,4.97
2018-07-24T00:35:50.287Z,4.90
2018-07-24T00:38:18.607Z,4.93
2018-07-24T00:40:46.945Z,4.67
2018-07-24T00:43:15.282Z,4.70
2018-07-24T00:45:43.609Z,5.00
2018-07-24T00:48:11.951Z,5.10
2018-07-24T00:50:40.320Z,4.23
2018-07-24T00:53:08.704Z,4.20
2018-07-24T00:55:37.060Z,4.33
2018-07-24T00:58:05.611Z,4.87
2018-07-24T01:00:33.970Z,4.87
2018-07-24T01:03:02.317Z,5.33
2018-07-24T01:05:30.625Z,4.90
2018-07-24T01:07:58.926Z,5.37
2018-07-24T01:10:27.233Z,4.90
2018-07-24T01:12:55.574Z,4.27
2018-07-24T01:15:23.967Z,4.53
2018-07-24T01:17:52.299Z,4.93
2018-07-24T01:20:20.615Z,5.50
2018-07-24T01:22:48.958Z,5.20
2018-07-24T01:25:17.360Z,5.00
2018-07-24T01:27:45.725Z,4.73
2018-07-24T01:30:14.045Z,5.20
2018-07-24T01:32:42.360Z,4.90
2018-07-24T01:35:10.657Z,4.70
2018-07-24T01:37:38.993Z,4.90
2018-07-24T01:40:07.314Z,4.53
2018-07-24T01:42:35.666Z,4.80
2018-07-24T01:45:04.021Z,4.77
2018-07-24T01:47:32.332Z,4.67
2018-07-24T01:50:00.721Z,4.43
2018-07-24T01:52:29.087Z,4.53
2018-07-24T01:54:57.443Z,5.03
2018-07-24T01:57:25.807Z,5.07
2018-07-24T01:59:54.127Z,5.47
2018-07-24T02:02:22.476Z,4.87
2018-07-24T02:04:50.786Z,4.90
2018-07-24T02:07:19.123Z,4.90
2018-07-24T02:09:47.482Z,5.40
2018-07-24T02:12:16.329Z,5.13
2018-07-24T02:14:44.970Z,5.20
2018-07-24T02:17:13.545Z,5.07
2018-07-24T02:19:41.937Z,5.63
2018-07-24T02:22:10.271Z,5.43
2018-07-24T02:24:39.010Z,5.47
2018-07-24T02:27:07.342Z,4.60
2018-07-24T02:29:35.678Z,5.30
2018-07-24T02:32:04.022Z,5.43
2018-07-24T02:34:32.394Z,5.07
2018-07-24T02:37:00.751Z,5.63
2018-07-24T02:39:29.123Z,6.03
2018-07-24T02:41:57.488Z,5.40
2018-07-24T02:44:26.418Z,5.47
2018-07-24T02:46:54.752Z,5.93
2018-07-24T02:49:23.095Z,5.37
2018-07-24T02:51:51.473Z,6.03
2018-07-24T02:54:19.823Z,6.07
2018-07-24T02:56:48.193Z,5.70
2018-07-24T02:59:16.565Z,5.93
2018-07-24T03:01:45.240Z,6.47
2018-07-24T03:04:13.687Z,6.07
2018-07-24T03:06:42.112Z,6.40
2018-07-24T03:09:11.700Z,6.43
2018-07-24T03:11:40.024Z,6.90
2018-07-24T03:14:08.752Z,6.30
2018-07-24T03:16:37.101Z,6.70
2018-07-24T03:19:05.801Z,6.70
2018-07-24T03:21:34.465Z,6.90
2018-07-24T03:24:02.799Z,7.27
2018-07-24T03:26:31.122Z,7.23
2018-07-24T03:28:59.481Z,7.07
2018-07-24T03:31:27.914Z,7.13
2018-07-24T03:33:56.630Z,6.93
2018-07-24T03:36:25.016Z,6.33
2018-07-24T03:38:53.547Z,6.70
2018-07-24T03:41:21.896Z,7.23
2018-07-24T03:43:50.208Z,7.00
2018-07-24T03:46:18.575Z,6.43
2018-07-24T03:48:47.094Z,7.40
2018-07-24T03:51:15.446Z,6.97
2018-07-24T03:53:43.827Z,7.20
2018-07-24T03:56:12.167Z,6.60
2018-07-24T03:58:40.532Z,6.50
2018-07-24T04:01:08.900Z,7.13
2018-07-24T04:03:37.292Z,7.50
2018-07-24T04:06:05.629Z,6.77
2018-07-24T04:08:33.993Z,6.77
2018-07-24T04:11:02.326Z,7.10
2018-07-24T04:13:30.627Z,8.80
2018-07-24T04:15:59.006Z,9.10
2018-07-24T04:18:30.437Z,7.87
2018-07-24T04:20:58.769Z,9.13
2018-07-24T04:23:27.091Z,8.80
2018-07-24T04:25:55.411Z,7.83
2018-07-24T04:28:23.874Z,8.80
2018-07-24T04:30:52.280Z,8.00
2018-07-24T04:33:20.585Z,8.20
2018-07-24T04:35:48.914Z,8.17
2018-07-24T04:38:17.384Z,8.63
2018-07-24T04:40:45.761Z,8.80
2018-07-24T04:43:14.157Z,8.07
2018-07-24T04:45:42.857Z,9.00
2018-07-24T04:48:11.197Z,8.00
2018-07-24T04:50:39.524Z,8.10
2018-07-24T04:53:08.548Z,9.40
2018-07-24T04:55:37.078Z,7.37
2018-07-24T04:58:05.536Z,9.10
2018-07-24T05:00:34.203Z,8.40
2018-07-24T05:03:03.804Z,8.03
2018-07-24T05:05:32.164Z,7.93
2018-07-24T05:08:00.514Z,7.57
2018-07-24T05:10:28.985Z,7.80
2018-07-24T05:12:57.624Z,8.17
2018-07-24T05:15:26.005Z,7.60
2018-07-24T05:17:54.471Z,7.13
2018-07-24T05:20:22.828Z,7.50
2018-07-24T05:22:51.338Z,8.13
2018-07-24T05:25:19.934Z,7.30
2018-07-24T05:27:48.674Z,7.60
2018-07-24T05:30:17.158Z,8.03
2018-07-24T05:32:45.935Z,7.33
2018-07-24T05:35:14.348Z,6.90
2018-07-24T05:37:42.986Z,7.40
2018-07-24T05:40:11.361Z,7.00
2018-07-24T05:42:39.745Z,7.63
2018-07-24T05:45:08.094Z,6.67
2018-07-24T05:47:36.438Z,7.23
2018-07-24T05:50:04.954Z,6.43
2018-07-24T05:52:33.369Z,6.93
2018-07-24T05:55:01.900Z,6.53
2018-07-24T05:57:30.225Z,6.97
2018-07-24T05:59:58.592Z,6.83
2018-07-24T06:02:27.025Z,6.73
2018-07-24T06:04:55.422Z,6.20
2018-07-24T06:07:23.779Z,6.67
2018-07-24T06:09:52.128Z,6.27
2018-07-24T06:12:20.540Z,5.77
2018-07-24T06:14:49.122Z,5.50
2018-07-24T06:17:17.533Z,6.20
2018-07-24T06:19:45.901Z,6.63
2018-07-24T06:22:14.240Z,6.50
2018-07-24T06:24:42.601Z,6.17
2018-07-24T06:27:10.959Z,6.12
2018-07-24T06:29:39.319Z,5.40
2018-07-24T06:32:07.696Z,6.05
2018-07-24T06:34:36.046Z,7.78
2018-07-24T06:37:04.427Z,6.12
2018-07-24T06:39:32.751Z,5.72
2018-07-24T06:42:01.117Z,5.65
2018-07-24T06:44:29.473Z,4.95
2018-07-24T06:46:57.788Z,5.75
2018-07-24T06:49:26.219Z,4.65
2018-07-24T06:51:54.589Z,4.90
2018-07-24T06:54:22.876Z,5.30
2018-07-24T06:56:51.220Z,5.47
2018-07-24T06:59:19.923Z,4.65
2018-07-24T07:01:48.260Z,4.95
2018-07-24T07:04:16.679Z,5.00
2018-07-24T07:06:45.029Z,4.80
2018-07-24T07:09:13.395Z,5.20
2018-07-24T07:11:41.757Z,4.92
2018-07-24T07:14:10.084Z,4.90
2018-07-24T07:16:38.404Z,4.00
2018-07-24T07:19:06.832Z,4.50
2018-07-24T07:21:35.453Z,4.72
2018-07-24T07:24:03.852Z,4.50
2018-07-24T07:26:32.267Z,3.62
2018-07-24T07:29:00.640Z,3.92
2018-07-24T07:31:29.004Z,3.87
2018-07-24T07:33:57.540Z,4.00
2018-07-24T07:36:25.870Z,4.08
2018-07-24T07:38:54.207Z,3.62
2018-07-24T07:41:22.532Z,4.00
2018-07-24T07:43:50.863Z,3.52
2018-07-24T07:46:19.246Z,3.80
2018-07-24T07:48:47.578Z,3.90
2018-07-24T07:51:15.923Z,3.65
2018-07-24T07:53:44.251Z,3.98
2018-07-24T07:56:12.608Z,4.30
2018-07-24T07:58:41.032Z,3.83
2018-07-24T08:01:09.269Z,4.20
2018-07-24T08:03:37.609Z,3.00
2018-07-24T08:06:05.985Z,3.42
2018-07-24T08:08:34.290Z,3.58
2018-07-24T08:11:02.626Z,3.40
2018-07-24T08:13:30.963Z,2.90
2018-07-24T08:15:59.344Z,4.03
2018-07-24T08:18:27.755Z,3.62
2018-07-24T08:20:56.132Z,3.58
2018-07-24T08:23:24.543Z,3.70
2018-07-24T08:25:52.860Z,3.77
2018-07-24T08:28:21.190Z,3.37
2018-07-24T08:30:49.539Z,3.35
2018-07-24T08:33:17.842Z,3.25
2018-07-24T08:35:46.190Z,3.00
2018-07-24T08:38:14.493Z,2.75
2018-07-24T08:40:42.801Z,3.08
2018-07-24T08:43:11.168Z,3.80
2018-07-24T08:45:39.477Z,3.47
2018-07-24T08:48:08.044Z,3.22
2018-07-24T08:50:36.387Z,3.00
2018-07-24T08:53:04.926Z,2.90
2018-07-24T08:55:33.695Z,3.08
2018-07-24T08:58:01.748Z,3.05
2018-07-24T09:00:30.323Z,2.72
2018-07-24T09:02:58.699Z,3.27
2018-07-24T09:05:27.001Z,3.25
2018-07-24T09:07:55.337Z,3.08
2018-07-24T09:10:23.696Z,3.42
2018-07-24T09:12:52.162Z,3.10
2018-07-24T09:15:20.506Z,2.70
2018-07-24T09:17:48.840Z,3.08
2018-07-24T09:20:17.256Z,3.02
2018-07-24T09:22:46.062Z,3.15
2018-07-24T09:25:14.469Z,3.08
2018-07-24T09:27:46.768Z,3.15
2018-07-24T09:30:15.161Z,3.27
2018-07-24T09:32:43.548Z,2.80
2018-07-24T09:35:12.300Z,2.60
2018-07-24T09:37:40.668Z,2.98
2018-07-24T09:40:09.020Z,3.12
2018-07-24T09:42:37.468Z,3.08
2018-07-24T09:45:07.866Z,2.87
2018-07-24T09:47:36.297Z,3.00
2018-07-24T09:50:04.972Z,3.08
2018-07-24T09:52:33.355Z,3.05
2018-07-24T09:55:02.627Z,2.90
2018-07-24T09:57:32.091Z,2.65
2018-07-24T10:00:00.428Z,2.62
2018-07-24T10:02:28.740Z,2.92
2018-07-24T10:04:57.059Z,3.00
2018-07-24T10:07:25.388Z,2.90
2018-07-24T10:09:53.714Z,3.12
2018-07-24T10:12:22.339Z,2.90
2018-07-24T10:14:52.042Z,3.05
2018-07-24T10:17:20.375Z,3.40
2018-07-24T10:19:49.371Z,2.55
2018-07-24T10:22:17.789Z,2.60
2018-07-24T10:24:46.072Z,2.77
2018-07-24T10:27:14.444Z,2.65
2018-07-24T10:29:42.804Z,3.02
2018-07-24T10:32:11.342Z,2.47
2018-07-24T10:34:40.456Z,3.10
2018-07-24T10:37:09.405Z,2.72
2018-07-24T10:39:37.734Z,2.95
2018-07-24T10:42:06.589Z,3.12
2018-07-24T10:44:35.318Z,3.10
2018-07-24T10:47:03.712Z,2.50
2018-07-24T10:49:32.015Z,2.20
2018-07-24T10:52:00.461Z,2.60
2018-07-24T10:54:28.791Z,2.22
2018-07-24T10:56:57.152Z,2.50
2018-07-24T10:59:25.527Z,2.80
2018-07-24T11:01:54.135Z,2.62
2018-07-24T11:04:22.471Z,2.80
2018-07-24T11:06:50.798Z,2.70
2018-07-24T11:09:19.103Z,2.60
2018-07-24T11:11:47.420Z,2.87
2018-07-24T11:14:15.754Z,2.80
2018-07-24T11:16:44.119Z,2.15
2018-07-24T11:19:12.425Z,3.05
2018-07-24T11:21:40.872Z,2.65
2018-07-24T11:24:09.302Z,2.98
2018-07-24T11:26:37.655Z,2.77
2018-07-24T11:29:06.126Z,2.50
2018-07-24T11:31:34.527Z,2.70
2018-07-24T11:34:02.895Z,2.45
2018-07-24T11:36:31.222Z,2.58
2018-07-24T11:38:59.552Z,2.77
2018-07-24T11:41:27.935Z,3.10
2018-07-24T11:43:56.363Z,2.50
2018-07-24T11:46:25.061Z,2.60
2018-07-24T11:48:53.421Z,2.90
2018-07-24T11:51:21.737Z,2.77
2018-07-24T11:53:50.029Z,2.50
2018-07-24T11:56:18.384Z,2.80
2018-07-24T11:58:46.767Z,2.80
2018-07-24T12:01:15.141Z,2.45
2018-07-24T12:03:43.591Z,2.87
2018-07-24T12:06:11.959Z,2.42
2018-07-24T12:08:40.301Z,2.77
2018-07-24T12:11:08.645Z,2.52
2018-07-24T12:13:37.058Z,2.30
2018-07-24T12:16:05.519Z,2.55
2018-07-24T12:18:33.914Z,2.40
2018-07-24T12:21:02.443Z,2.87
2018-07-24T12:23:30.789Z,2.60
2018-07-24T12:25:59.140Z,2.35
2018-07-24T12:28:27.495Z,3.10
2018-07-24T12:30:56.067Z,2.87
2018-07-24T12:33:24.383Z,2.92
2018-07-24T12:35:52.714Z,2.62
2018-07-24T12:38:21.075Z,2.60
2018-07-24T12:40:49.367Z,2.45
2018-07-24T12:43:17.685Z,2.52
2018-07-24T12:45:46.005Z,2.50
2018-07-24T12:48:14.361Z,3.10
2018-07-24T12:50:42.683Z,2.42
2018-07-24T12:53:11.194Z,2.60
2018-07-24T12:55:39.572Z,2.42
2018-07-24T12:58:07.920Z,2.52
2018-07-24T13:00:36.289Z,2.90
2018-07-24T13:03:04.681Z,2.85
2018-07-24T13:05:32.990Z,2.77
2018-07-24T13:08:01.348Z,2.58
2018-07-24T13:10:29.719Z,2.62
2018-07-24T13:12:58.097Z,2.37
2018-07-24T13:15:26.441Z,2.67
2018-07-24T13:17:54.920Z,2.50
2018-07-24T13:20:23.258Z,2.72
2018-07-24T13:22:51.591Z,2.45
2018-07-24T13:25:19.902Z,2.37
2018-07-24T13:27:48.403Z,2.50
2018-07-24T13:30:16.726Z,2.62
2018-07-24T13:32:45.058Z,2.40
2018-07-24T13:35:13.371Z,2.30
2018-07-24T13:37:41.733Z,2.60
2018-07-24T13:40:10.049Z,2.75
2018-07-24T13:42:38.403Z,2.58
2018-07-24T13:45:06.875Z,2.00
2018-07-24T13:47:35.121Z,2.50
2018-07-24T13:50:03.655Z,2.60
2018-07-24T13:52:31.964Z,2.60
2018-07-24T13:55:00.308Z,2.35
2018-07-24T13:57:28.667Z,2.70
2018-07-24T13:59:56.960Z,2.40
2018-07-24T14:02:25.279Z,2.60
2018-07-24T14:04:53.623Z,2.37
2018-07-24T14:07:21.953Z,2.27
2018-07-24T14:09:50.325Z,2.27
2018-07-24T14:12:18.695Z,2.22
2018-07-24T14:14:47.251Z,2.37
2018-07-24T14:17:15.601Z,2.10
2018-07-24T14:19:43.986Z,2.33
2018-07-24T14:22:12.383Z,2.50
2018-07-24T14:24:40.783Z,2.30
2018-07-24T14:27:09.225Z,2.27
2018-07-24T14:29:37.625Z,2.42
2018-07-24T14:32:06.053Z,2.40
2018-07-24T14:34:34.436Z,2.80
2018-07-24T14:37:02.808Z,2.50
2018-07-24T14:39:31.206Z,2.50
2018-07-24T14:41:59.578Z,2.50
2018-07-24T14:44:27.931Z,2.40
2018-07-24T14:46:56.252Z,2.30
2018-07-24T14:49:24.592Z,2.47
2018-07-24T14:51:52.949Z,2.60
2018-07-24T14:54:21.362Z,2.17
2018-07-24T14:56:49.797Z,2.58
2018-07-24T14:59:18.146Z,2.40
2018-07-24T15:01:46.459Z,2.17
2018-07-24T15:04:14.775Z,2.10
2018-07-24T15:06:43.130Z,2.40
2018-07-24T15:09:12.694Z,2.12
2018-07-24T15:11:41.310Z,2.37
2018-07-24T15:14:09.684Z,2.22
2018-07-24T15:16:38.039Z,2.20
2018-07-24T15:19:06.398Z,2.10
2018-07-24T15:21:34.733Z,2.20
2018-07-24T15:24:03.098Z,1.92
2018-07-24T15:26:31.486Z,2.25
2018-07-24T15:28:59.820Z,2.30
2018-07-24T15:31:28.472Z,2.80
2018-07-24T15:33:56.841Z,2.65
2018-07-24T15:36:25.165Z,2.50
2018-07-24T15:38:53.509Z,2.80
2018-07-24T15:41:21.903Z,2.40
2018-07-24T15:43:50.160Z,2.30
2018-07-24T15:46:18.488Z,2.58
2018-07-24T15:48:46.850Z,2.22
2018-07-24T15:51:15.191Z,2.17
2018-07-24T15:53:43.763Z,2.02
2018-07-24T15:56:12.240Z,2.30
2018-07-24T15:58:40.516Z,2.05
2018-07-24T16:01:08.910Z,1.90
2018-07-24T16:03:37.316Z,1.92
2018-07-24T16:06:05.724Z,2.12
2018-07-24T16:08:34.072Z,1.92
2018-07-24T16:11:02.578Z,2.02
2018-07-24T16:13:30.958Z,2.50
2018-07-24T16:15:59.332Z,2.10
2018-07-24T16:18:27.722Z,2.40
2018-07-24T16:20:56.088Z,2.47
2018-07-24T16:23:24.432Z,2.10
2018-07-24T16:25:52.805Z,2.27
2018-07-24T16:28:21.131Z,2.30
2018-07-24T16:30:49.507Z,1.82
2018-07-24T16:33:17.815Z,1.95
2018-07-24T16:35:46.133Z,2.60
2018-07-24T16:38:14.455Z,2.22
2018-07-24T16:40:42.824Z,2.40
2018-07-24T16:43:11.156Z,2.10
2018-07-24T16:45:39.533Z,2.00
2018-07-24T16:48:07.856Z,2.60
2018-07-24T16:50:36.224Z,2.77
2018-07-24T16:53:04.586Z,2.37
2018-07-24T16:55:32.988Z,2.42
2018-07-24T16:58:01.428Z,2.20
2018-07-24T17:00:29.753Z,2.35
2018-07-24T17:02:58.148Z,2.40
2018-07-24T17:05:26.480Z,2.42
2018-07-24T17:07:54.844Z,2.40
2018-07-24T17:10:23.199Z,2.25
2018-07-24T17:12:51.572Z,2.25
2018-07-24T17:15:19.924Z,2.40
2018-07-24T17:17:48.241Z,2.37
2018-07-24T17:20:16.548Z,2.70
2018-07-24T17:22:44.953Z,1.98
2018-07-24T17:25:15.738Z,1.80
2018-07-24T17:27:44.108Z,2.20
2018-07-24T17:30:15.198Z,2.05
2018-07-24T17:32:46.619Z,2.05
2018-07-24T17:35:15.575Z,2.10
2018-07-24T17:37:47.704Z,2.00
2018-07-24T17:40:16.686Z,2.42
2018-07-24T17:42:46.952Z,2.08
2018-07-24T17:45:18.984Z,2.17
2018-07-24T17:47:47.480Z,2.10
2018-07-24T17:50:15.852Z,1.95
2018-07-24T17:52:44.240Z,2.20
2018-07-24T17:55:17.466Z,1.87
2018-07-24T17:57:45.988Z,1.98
2018-07-24T18:00:14.663Z,2.20
2018-07-24T18:02:44.064Z,2.40
2018-07-24T18:05:12.843Z,2.20
2018-07-24T18:07:41.312Z,1.82
2018-07-24T18:10:10.185Z,1.80
2018-07-24T18:12:38.608Z,2.17
2018-07-24T18:15:06.941Z,2.22
2018-07-24T18:17:35.248Z,2.10
2018-07-24T18:20:03.779Z,1.87
2018-07-24T18:22:32.633Z,1.95
2018-07-24T18:25:01.111Z,2.20
2018-07-24T18:27:29.604Z,2.00
2018-07-24T18:29:58.117Z,2.10
2018-07-24T18:32:26.518Z,2.00
2018-07-24T18:34:55.008Z,2.20
2018-07-24T18:37:23.648Z,1.90
2018-07-24T18:39:52.038Z,1.90
2018-07-24T18:42:20.492Z,1.82
2018-07-24T18:44:48.852Z,1.90
2018-07-24T18:47:17.244Z,2.08
2018-07-24T18:49:45.689Z,2.20
2018-07-24T18:52:14.061Z,2.25
2018-07-24T18:54:42.952Z,1.67
2018-07-24T18:57:11.964Z,2.00
2018-07-24T18:59:41.656Z,2.20
2018-07-24T19:02:10.356Z,2.17
2018-07-24T19:04:39.831Z,2.65
2018-07-24T19:07:09.012Z,2.27
2018-07-24T19:09:37.522Z,2.37
2018-07-24T19:12:05.934Z,2.30
2018-07-24T19:14:34.309Z,2.20
2018-07-24T19:17:02.798Z,2.35
2018-07-24T19:19:31.441Z,2.50
2018-07-24T19:21:59.963Z,2.58
2018-07-24T19:24:28.563Z,2.65
2018-07-24T19:26:57.271Z,2.77
2018-07-24T19:29:25.627Z,2.40
2018-07-24T19:31:54.302Z,2.98
2018-07-24T19:34:23.009Z,2.72
2018-07-24T19:36:52.407Z,2.67
2018-07-24T19:39:20.927Z,2.70
2018-07-24T19:41:49.372Z,2.37
2018-07-24T19:44:17.836Z,2.52
2018-07-24T19:46:46.167Z,3.30
2018-07-24T19:49:14.701Z,3.00
2018-07-24T19:51:43.208Z,3.10
2018-07-24T19:54:11.746Z,2.75
2018-07-24T19:56:40.153Z,2.80
2018-07-24T19:59:08.847Z,2.75
2018-07-24T20:01:37.665Z,2.50
2018-07-24T20:04:08.763Z,2.40
2018-07-24T20:06:37.617Z,2.45
2018-07-24T20:09:09.672Z,2.67
2018-07-24T20:11:38.172Z,2.62
2018-07-24T20:14:07.017Z,3.37
2018-07-24T20:16:35.414Z,2.92
2018-07-24T20:19:04.563Z,3.00
2018-07-24T20:21:32.859Z,2.95
2018-07-24T20:24:01.300Z,3.00
2018-07-24T20:26:29.910Z,3.42
2018-07-24T20:28:58.312Z,2.60
2018-07-24T20:31:26.888Z,3.37
2018-07-24T20:33:55.345Z,3.47
2018-07-24T20:36:23.833Z,3.42
2018-07-24T20:38:52.796Z,3.50
2018-07-24T20:41:21.202Z,2.87
2018-07-24T20:43:49.783Z,3.37
2018-07-24T20:46:18.291Z,3.08
2018-07-24T20:48:46.643Z,2.98
2018-07-24T20:51:15.299Z,3.42
2018-07-24T20:53:43.691Z,3.10
2018-07-24T20:56:12.312Z,3.70
2018-07-24T20:58:41.015Z,4.10
2018-07-24T21:01:10.048Z,3.98
2018-07-24T21:03:38.386Z,3.87
2018-07-24T21:06:06.760Z,3.33
2018-07-24T21:08:35.014Z,3.92
2018-07-24T21:11:03.365Z,3.80
2018-07-24T21:13:31.699Z,4.15
2018-07-24T21:16:00.032Z,4.10
2018-07-24T21:18:28.369Z,3.65
2018-07-24T21:20:56.733Z,4.22
2018-07-24T21:23:25.037Z,3.47
2018-07-24T21:25:53.436Z,3.42
2018-07-24T21:28:21.751Z,2.98
2018-07-24T21:30:50.099Z,3.17
2018-07-24T21:33:18.397Z,3.05
2018-07-24T21:35:46.735Z,3.30
2018-07-24T21:38:15.729Z,3.62
2018-07-24T21:40:44.262Z,3.47
2018-07-24T21:43:12.664Z,3.50
2018-07-24T21:45:41.304Z,3.27
2018-07-24T21:48:09.630Z,3.58
2018-07-24T21:50:37.979Z,3.08
2018-07-24T21:53:06.356Z,3.40
2018-07-24T21:55:34.689Z,2.62
2018-07-24T21:58:03.170Z,3.70
2018-07-24T22:00:35.430Z,3.00
2018-07-24T22:03:04.463Z,3.03
2018-07-24T22:05:33.432Z,3.10
2018-07-24T22:08:01.807Z,2.62
2018-07-24T22:10:30.186Z,2.90
2018-07-24T22:12:58.487Z,3.27
2018-07-24T22:15:27.608Z,2.72
2018-07-24T22:17:56.650Z,3.00
2018-07-24T22:20:25.250Z,2.62
2018-07-24T22:22:53.652Z,2.90
2018-07-24T22:25:22.044Z,2.90
2018-07-24T22:27:50.423Z,3.20
2018-07-24T22:30:18.864Z,2.40
2018-07-24T22:32:47.356Z,2.90
2018-07-24T22:35:15.684Z,2.60
2018-07-24T22:37:44.055Z,2.70
2018-07-24T22:40:12.700Z,2.87
2018-07-24T22:42:41.200Z,2.90
2018-07-24T22:45:09.756Z,2.30
2018-07-24T22:47:38.245Z,2.63
2018-07-24T22:50:07.139Z,2.63
2018-07-24T22:52:35.466Z,2.90
2018-07-24T22:55:03.815Z,2.90
2018-07-24T22:57:32.145Z,3.10
2018-07-24T23:00:00.496Z,2.87
2018-07-24T23:02:28.799Z,2.73
2018-07-24T23:04:57.529Z,2.40
2018-07-24T23:07:27.562Z,2.30
2018-07-24T23:09:55.986Z,2.80
2018-07-24T23:12:24.514Z,1.93
2018-07-24T23:14:52.917Z,2.37
2018-07-24T23:17:21.484Z,2.60
2018-07-24T23:19:50.037Z,2.50
2018-07-24T23:22:18.371Z,2.47
2018-07-24T23:24:46.664Z,2.70
2018-07-24T23:27:15.049Z,2.60
2018-07-24T23:29:43.392Z,2.40
2018-07-24T23:32:11.816Z,3.00
2018-07-24T23:34:40.162Z,2.70
2018-07-24T23:37:08.580Z,2.73
2018-07-24T23:39:36.901Z,2.47
2018-07-24T23:42:05.275Z,2.50
2018-07-24T23:44:33.603Z,2.47
2018-07-24T23:47:02.144Z,2.17
2018-07-24T23:49:30.559Z,2.53
2018-07-24T23:51:59.219Z,3.00
2018-07-24T23:54:27.601Z,2.40
2018-07-24T23:56:55.989Z,2.80
2018-07-24T23:59:24.346Z,2.70
